sensor_id;sensor_type;location;lat;lon;timestamp;P1;durP1;ratioP1;P2;durP2;ratioP2
37069;SDS011;22984;48.862;9.320;2023-01-31T00:00:54;8.93;;;4.10;;
37069;SDS011;22984;48.862;9.320;2023-01-31T00:03:20;9.13;;;4.30;;
37069;SDS011;22984;48.862;9.320;2023-01-31T00:05:46;11.10;;;4.60;;
37069;SDS011;22984;48.862;9.320;2023-01-31T00:08:12;8.00;;;4.05;;
37069;SDS011;22984;48.862;9.320;2023-01-31T00:10:39;12.52;;;4.80;;
37069;SDS011;22984;48.862;9.320;2023-01-31T00:13:05;11.88;;;4.78;;
37069;SDS011;22984;48.862;9.320;2023-01-31T00:15:31;9.13;;;4.18;;
37069;SDS011;22984;48.862;9.320;2023-01-31T00:17:57;9.20;;;4.30;;
37069;SDS011;22984;48.862;9.320;2023-01-31T00:20:23;10.10;;;3.72;;
37069;SDS011;22984;48.862;9.320;2023-01-31T00:22:49;9.57;;;4.22;;
37069;SDS011;22984;48.862;9.320;2023-01-31T00:25:15;12.93;;;4.90;;
37069;SDS011;22984;48.862;9.320;2023-01-31T00:27:41;9.02;;;4.00;;
37069;SDS011;22984;48.862;9.320;2023-01-31T00:30:08;10.38;;;4.57;;
37069;SDS011;22984;48.862;9.320;2023-01-31T00:32:34;11.15;;;4.50;;
37069;SDS011;22984;48.862;9.320;2023-01-31T00:35:00;9.88;;;4.40;;
37069;SDS011;22984;48.862;9.320;2023-01-31T00:37:26;10.75;;;4.10;;
37069;SDS011;22984;48.862;9.320;2023-01-31T00:39:52;11.83;;;4.47;;
37069;SDS011;22984;48.862;9.320;2023-01-31T00:42:18;9.93;;;4.63;;
37069;SDS011;22984;48.862;9.320;2023-01-31T00:44:44;9.20;;;4.60;;
37069;SDS011;22984;48.862;9.320;2023-01-31T00:47:10;8.68;;;4.10;;
37069;SDS011;22984;48.862;9.320;2023-01-31T00:49:36;10.48;;;4.80;;
37069;SDS011;22984;48.862;9.320;2023-01-31T00:52:02;10.88;;;4.05;;
37069;SDS011;22984;48.862;9.320;2023-01-31T00:54:28;9.43;;;4.90;;
37069;SDS011;22984;48.862;9.320;2023-01-31T00:56:54;9.93;;;4.45;;
37069;SDS011;22984;48.862;9.320;2023-01-31T00:59:20;9.07;;;4.45;;
37069;SDS011;22984;48.862;9.320;2023-01-31T01:01:46;11.57;;;4.38;;
37069;SDS011;22984;48.862;9.320;2023-01-31T01:04:12;10.48;;;4.43;;
37069;SDS011;22984;48.862;9.320;2023-01-31T01:06:38;8.27;;;3.77;;
37069;SDS011;22984;48.862;9.320;2023-01-31T01:09:05;7.93;;;3.67;;
37069;SDS011;22984;48.862;9.320;2023-01-31T01:11:31;11.23;;;3.85;;
37069;SDS011;22984;48.862;9.320;2023-01-31T01:13:58;7.38;;;3.67;;
37069;SDS011;22984;48.862;9.320;2023-01-31T01:16:35;9.27;;;4.00;;
37069;SDS011;22984;48.862;9.320;2023-01-31T01:19:02;10.68;;;4.43;;
37069;SDS011;22984;48.862;9.320;2023-01-31T01:21:28;9.57;;;4.40;;
37069;SDS011;22984;48.862;9.320;2023-01-31T01:23:55;10.68;;;4.13;;
37069;SDS011;22984;48.862;9.320;2023-01-31T01:26:22;12.98;;;4.75;;
37069;SDS011;22984;48.862;9.320;2023-01-31T01:28:49;10.77;;;4.43;;
37069;SDS011;22984;48.862;9.320;2023-01-31T01:31:16;12.98;;;4.40;;
37069;SDS011;22984;48.862;9.320;2023-01-31T01:33:42;10.07;;;4.05;;
37069;SDS011;22984;48.862;9.320;2023-01-31T01:36:09;7.93;;;3.40;;
37069;SDS011;22984;48.862;9.320;2023-01-31T01:38:41;9.50;;;3.93;;
37069;SDS011;22984;48.862;9.320;2023-01-31T01:41:07;11.45;;;3.90;;
37069;SDS011;22984;48.862;9.320;2023-01-31T01:46:09;8.43;;;3.75;;
37069;SDS011;22984;48.862;9.320;2023-01-31T01:48:36;10.60;;;4.30;;
37069;SDS011;22984;48.862;9.320;2023-01-31T01:51:02;7.93;;;3.30;;
37069;SDS011;22984;48.862;9.320;2023-01-31T01:53:29;11.93;;;3.67;;
37069;SDS011;22984;48.862;9.320;2023-01-31T01:56:03;11.83;;;4.30;;
37069;SDS011;22984;48.862;9.320;2023-01-31T02:00:57;11.77;;;3.90;;
37069;SDS011;22984;48.862;9.320;2023-01-31T02:03:23;10.00;;;3.53;;
37069;SDS011;22984;48.862;9.320;2023-01-31T02:05:50;11.63;;;3.72;;
37069;SDS011;22984;48.862;9.320;2023-01-31T02:08:18;10.75;;;3.75;;
37069;SDS011;22984;48.862;9.320;2023-01-31T02:11:45;8.15;;;3.45;;
37069;SDS011;22984;48.862;9.320;2023-01-31T02:13:40;10.80;;;3.95;;
37069;SDS011;22984;48.862;9.320;2023-01-31T02:16:06;10.68;;;3.50;;
37069;SDS011;22984;48.862;9.320;2023-01-31T02:18:32;9.13;;;3.58;;
37069;SDS011;22984;48.862;9.320;2023-01-31T02:37:16;10.98;;;4.13;;
37069;SDS011;22984;48.862;9.320;2023-01-31T02:45:02;13.93;;;4.80;;
37069;SDS011;22984;48.862;9.320;2023-01-31T02:47:47;16.70;;;4.53;;
37069;SDS011;22984;48.862;9.320;2023-01-31T02:55:31;12.20;;;4.35;;
37069;SDS011;22984;48.862;9.320;2023-01-31T02:58:17;12.95;;;4.93;;
37069;SDS011;22984;48.862;9.320;2023-01-31T03:00:44;14.35;;;4.85;;
37069;SDS011;22984;48.862;9.320;2023-01-31T03:03:12;12.05;;;4.55;;
37069;SDS011;22984;48.862;9.320;2023-01-31T03:05:42;12.15;;;4.70;;
37069;SDS011;22984;48.862;9.320;2023-01-31T03:08:08;9.13;;;4.20;;
37069;SDS011;22984;48.862;9.320;2023-01-31T03:10:56;12.82;;;5.18;;
37069;SDS011;22984;48.862;9.320;2023-01-31T03:13:32;12.90;;;5.53;;
37069;SDS011;22984;48.862;9.320;2023-01-31T03:19:02;11.40;;;5.13;;
37069;SDS011;22984;48.862;9.320;2023-01-31T03:21:39;11.05;;;4.97;;
37069;SDS011;22984;48.862;9.320;2023-01-31T03:24:06;12.10;;;4.77;;
37069;SDS011;22984;48.862;9.320;2023-01-31T03:26:33;13.48;;;4.72;;
37069;SDS011;22984;48.862;9.320;2023-01-31T03:28:59;14.13;;;5.53;;
37069;SDS011;22984;48.862;9.320;2023-01-31T03:31:28;12.90;;;5.43;;
37069;SDS011;22984;48.862;9.320;2023-01-31T03:34:02;15.83;;;5.47;;
37069;SDS011;22984;48.862;9.320;2023-01-31T03:42:01;14.95;;;5.43;;
37069;SDS011;22984;48.862;9.320;2023-01-31T03:44:35;13.23;;;5.40;;
37069;SDS011;22984;48.862;9.320;2023-01-31T03:47:13;10.87;;;4.93;;
37069;SDS011;22984;48.862;9.320;2023-01-31T03:49:40;15.90;;;6.20;;
37069;SDS011;22984;48.862;9.320;2023-01-31T03:52:08;12.93;;;5.18;;
37069;SDS011;22984;48.862;9.320;2023-01-31T03:54:38;14.63;;;5.22;;
37069;SDS011;22984;48.862;9.320;2023-01-31T03:57:17;13.35;;;5.68;;
37069;SDS011;22984;48.862;9.320;2023-01-31T03:59:45;16.75;;;5.95;;
37069;SDS011;22984;48.862;9.320;2023-01-31T04:02:12;14.15;;;4.95;;
37069;SDS011;22984;48.862;9.320;2023-01-31T04:04:41;14.67;;;5.47;;
37069;SDS011;22984;48.862;9.320;2023-01-31T04:07:10;18.05;;;5.57;;
37069;SDS011;22984;48.862;9.320;2023-01-31T04:09:37;17.05;;;6.18;;
37069;SDS011;22984;48.862;9.320;2023-01-31T04:12:03;15.50;;;6.15;;
37069;SDS011;22984;48.862;9.320;2023-01-31T04:14:29;12.10;;;5.38;;
37069;SDS011;22984;48.862;9.320;2023-01-31T04:16:55;13.45;;;5.35;;
37069;SDS011;22984;48.862;9.320;2023-01-31T04:19:21;10.67;;;5.17;;
37069;SDS011;22984;48.862;9.320;2023-01-31T04:21:47;14.68;;;5.65;;
37069;SDS011;22984;48.862;9.320;2023-01-31T04:24:14;22.17;;;8.57;;
37069;SDS011;22984;48.862;9.320;2023-01-31T04:26:40;15.77;;;7.70;;
37069;SDS011;22984;48.862;9.320;2023-01-31T04:29:06;17.42;;;5.90;;
37069;SDS011;22984;48.862;9.320;2023-01-31T04:31:32;20.55;;;7.78;;
37069;SDS011;22984;48.862;9.320;2023-01-31T04:33:58;18.75;;;6.65;;
37069;SDS011;22984;48.862;9.320;2023-01-31T04:36:24;14.63;;;5.93;;
37069;SDS011;22984;48.862;9.320;2023-01-31T04:38:50;13.48;;;5.10;;
37069;SDS011;22984;48.862;9.320;2023-01-31T04:41:16;13.82;;;5.30;;
37069;SDS011;22984;48.862;9.320;2023-01-31T04:43:42;18.33;;;5.93;;
37069;SDS011;22984;48.862;9.320;2023-01-31T04:46:08;23.27;;;5.50;;
37069;SDS011;22984;48.862;9.320;2023-01-31T04:48:34;17.48;;;5.82;;
37069;SDS011;22984;48.862;9.320;2023-01-31T04:51:00;16.83;;;5.80;;
37069;SDS011;22984;48.862;9.320;2023-01-31T04:53:26;16.30;;;5.63;;
37069;SDS011;22984;48.862;9.320;2023-01-31T04:55:53;12.88;;;5.40;;
37069;SDS011;22984;48.862;9.320;2023-01-31T04:58:19;17.92;;;6.50;;
37069;SDS011;22984;48.862;9.320;2023-01-31T05:00:45;13.90;;;6.13;;
37069;SDS011;22984;48.862;9.320;2023-01-31T05:03:11;16.05;;;6.03;;
37069;SDS011;22984;48.862;9.320;2023-01-31T05:05:37;16.85;;;5.55;;
37069;SDS011;22984;48.862;9.320;2023-01-31T05:08:04;23.50;;;7.60;;
37069;SDS011;22984;48.862;9.320;2023-01-31T05:10:30;21.83;;;7.47;;
37069;SDS011;22984;48.862;9.320;2023-01-31T05:12:56;19.48;;;8.15;;
37069;SDS011;22984;48.862;9.320;2023-01-31T05:15:22;18.80;;;7.78;;
37069;SDS011;22984;48.862;9.320;2023-01-31T05:17:52;16.10;;;6.65;;
37069;SDS011;22984;48.862;9.320;2023-01-31T05:20:18;21.27;;;6.80;;
37069;SDS011;22984;48.862;9.320;2023-01-31T05:22:48;22.03;;;7.70;;
37069;SDS011;22984;48.862;9.320;2023-01-31T05:25:14;14.73;;;6.15;;
37069;SDS011;22984;48.862;9.320;2023-01-31T05:27:40;15.05;;;6.18;;
37069;SDS011;22984;48.862;9.320;2023-01-31T05:30:09;21.93;;;6.03;;
37069;SDS011;22984;48.862;9.320;2023-01-31T05:32:35;13.82;;;5.90;;
37069;SDS011;22984;48.862;9.320;2023-01-31T05:35:01;14.63;;;5.88;;
37069;SDS011;22984;48.862;9.320;2023-01-31T05:37:27;15.23;;;5.53;;
37069;SDS011;22984;48.862;9.320;2023-01-31T05:39:53;18.08;;;5.97;;
37069;SDS011;22984;48.862;9.320;2023-01-31T05:42:19;17.95;;;5.78;;
37069;SDS011;22984;48.862;9.320;2023-01-31T05:44:45;16.15;;;6.47;;
37069;SDS011;22984;48.862;9.320;2023-01-31T05:47:11;14.55;;;5.95;;
37069;SDS011;22984;48.862;9.320;2023-01-31T05:49:37;19.15;;;6.38;;
37069;SDS011;22984;48.862;9.320;2023-01-31T05:52:04;17.40;;;5.93;;
37069;SDS011;22984;48.862;9.320;2023-01-31T05:54:30;16.10;;;6.10;;
37069;SDS011;22984;48.862;9.320;2023-01-31T05:56:56;18.25;;;6.47;;
37069;SDS011;22984;48.862;9.320;2023-01-31T05:59:22;17.88;;;6.20;;
37069;SDS011;22984;48.862;9.320;2023-01-31T06:01:50;20.23;;;5.75;;
37069;SDS011;22984;48.862;9.320;2023-01-31T06:04:16;16.45;;;5.68;;
37069;SDS011;22984;48.862;9.320;2023-01-31T06:06:42;13.05;;;5.38;;
37069;SDS011;22984;48.862;9.320;2023-01-31T06:09:09;15.70;;;5.68;;
37069;SDS011;22984;48.862;9.320;2023-01-31T06:11:35;16.67;;;6.55;;
37069;SDS011;22984;48.862;9.320;2023-01-31T06:14:01;17.45;;;5.65;;
37069;SDS011;22984;48.862;9.320;2023-01-31T06:16:27;17.90;;;5.45;;
37069;SDS011;22984;48.862;9.320;2023-01-31T06:18:53;16.05;;;6.03;;
37069;SDS011;22984;48.862;9.320;2023-01-31T06:21:23;14.25;;;5.30;;
37069;SDS011;22984;48.862;9.320;2023-01-31T06:23:50;19.67;;;5.90;;
37069;SDS011;22984;48.862;9.320;2023-01-31T06:26:16;14.00;;;5.65;;
37069;SDS011;22984;48.862;9.320;2023-01-31T06:28:42;21.35;;;6.25;;
37069;SDS011;22984;48.862;9.320;2023-01-31T06:31:08;16.85;;;6.25;;
37069;SDS011;22984;48.862;9.320;2023-01-31T06:33:35;23.77;;;5.93;;
37069;SDS011;22984;48.862;9.320;2023-01-31T06:36:01;18.20;;;7.40;;
37069;SDS011;22984;48.862;9.320;2023-01-31T06:38:27;12.50;;;5.75;;
37069;SDS011;22984;48.862;9.320;2023-01-31T06:40:53;12.77;;;5.40;;
37069;SDS011;22984;48.862;9.320;2023-01-31T06:43:20;14.23;;;5.40;;
37069;SDS011;22984;48.862;9.320;2023-01-31T06:45:46;16.48;;;5.72;;
37069;SDS011;22984;48.862;9.320;2023-01-31T06:48:13;15.32;;;5.95;;
37069;SDS011;22984;48.862;9.320;2023-01-31T06:50:39;18.88;;;6.68;;
37069;SDS011;22984;48.862;9.320;2023-01-31T06:53:06;12.95;;;5.78;;
37069;SDS011;22984;48.862;9.320;2023-01-31T06:55:32;16.10;;;5.32;;
37069;SDS011;22984;48.862;9.320;2023-01-31T06:57:58;18.20;;;4.97;;
37069;SDS011;22984;48.862;9.320;2023-01-31T07:00:24;15.55;;;5.75;;
37069;SDS011;22984;48.862;9.320;2023-01-31T07:02:50;12.18;;;5.03;;
37069;SDS011;22984;48.862;9.320;2023-01-31T07:05:17;12.35;;;5.57;;
37069;SDS011;22984;48.862;9.320;2023-01-31T07:07:43;17.08;;;5.82;;
37069;SDS011;22984;48.862;9.320;2023-01-31T07:10:10;15.68;;;5.80;;
37069;SDS011;22984;48.862;9.320;2023-01-31T07:12:36;16.17;;;6.72;;
37069;SDS011;22984;48.862;9.320;2023-01-31T07:15:02;13.07;;;5.60;;
37069;SDS011;22984;48.862;9.320;2023-01-31T07:17:28;12.13;;;5.60;;
37069;SDS011;22984;48.862;9.320;2023-01-31T07:19:54;15.85;;;5.70;;
37069;SDS011;22984;48.862;9.320;2023-01-31T07:22:20;14.02;;;5.70;;
37069;SDS011;22984;48.862;9.320;2023-01-31T07:24:46;13.07;;;5.63;;
37069;SDS011;22984;48.862;9.320;2023-01-31T07:27:14;11.30;;;6.00;;
37069;SDS011;22984;48.862;9.320;2023-01-31T07:29:40;10.80;;;5.07;;
37069;SDS011;22984;48.862;9.320;2023-01-31T07:32:07;14.77;;;6.20;;
37069;SDS011;22984;48.862;9.320;2023-01-31T07:34:33;10.88;;;5.65;;
37069;SDS011;22984;48.862;9.320;2023-01-31T07:37:00;13.27;;;5.53;;
37069;SDS011;22984;48.862;9.320;2023-01-31T07:39:26;17.13;;;5.95;;
37069;SDS011;22984;48.862;9.320;2023-01-31T07:41:52;12.57;;;5.63;;
37069;SDS011;22984;48.862;9.320;2023-01-31T07:44:18;16.05;;;5.65;;
37069;SDS011;22984;48.862;9.320;2023-01-31T07:46:44;17.85;;;6.15;;
37069;SDS011;22984;48.862;9.320;2023-01-31T07:49:10;11.38;;;5.55;;
37069;SDS011;22984;48.862;9.320;2023-01-31T07:51:36;14.90;;;6.55;;
37069;SDS011;22984;48.862;9.320;2023-01-31T07:54:03;14.20;;;6.33;;
37069;SDS011;22984;48.862;9.320;2023-01-31T07:56:29;15.83;;;6.40;;
37069;SDS011;22984;48.862;9.320;2023-01-31T07:58:55;17.67;;;5.90;;
37069;SDS011;22984;48.862;9.320;2023-01-31T08:01:22;13.48;;;5.53;;
37069;SDS011;22984;48.862;9.320;2023-01-31T08:04:08;13.68;;;5.22;;
37069;SDS011;22984;48.862;9.320;2023-01-31T08:06:34;13.77;;;5.00;;
37069;SDS011;22984;48.862;9.320;2023-01-31T08:09:00;13.90;;;5.43;;
37069;SDS011;22984;48.862;9.320;2023-01-31T08:11:26;12.63;;;5.40;;
37069;SDS011;22984;48.862;9.320;2023-01-31T08:13:52;12.85;;;5.75;;
37069;SDS011;22984;48.862;9.320;2023-01-31T08:16:18;18.35;;;6.18;;
37069;SDS011;22984;48.862;9.320;2023-01-31T08:18:45;14.15;;;5.50;;
37069;SDS011;22984;48.862;9.320;2023-01-31T08:21:11;11.40;;;5.40;;
37069;SDS011;22984;48.862;9.320;2023-01-31T08:23:38;14.18;;;4.97;;
37069;SDS011;22984;48.862;9.320;2023-01-31T08:26:15;13.77;;;5.20;;
37069;SDS011;22984;48.862;9.320;2023-01-31T08:28:42;10.43;;;4.50;;
37069;SDS011;22984;48.862;9.320;2023-01-31T08:31:16;12.25;;;4.57;;
37069;SDS011;22984;48.862;9.320;2023-01-31T08:33:42;13.00;;;4.70;;
37069;SDS011;22984;48.862;9.320;2023-01-31T08:38:37;11.32;;;4.63;;
37069;SDS011;22984;48.862;9.320;2023-01-31T08:41:03;15.82;;;5.20;;
37069;SDS011;22984;48.862;9.320;2023-01-31T08:43:29;14.18;;;5.20;;
37069;SDS011;22984;48.862;9.320;2023-01-31T08:45:56;14.50;;;4.80;;
37069;SDS011;22984;48.862;9.320;2023-01-31T08:48:22;13.73;;;5.30;;
37069;SDS011;22984;48.862;9.320;2023-01-31T08:50:48;21.20;;;5.25;;
37069;SDS011;22984;48.862;9.320;2023-01-31T08:53:14;16.10;;;5.47;;
37069;SDS011;22984;48.862;9.320;2023-01-31T08:55:40;9.95;;;4.95;;
37069;SDS011;22984;48.862;9.320;2023-01-31T08:58:06;14.00;;;5.15;;
37069;SDS011;22984;48.862;9.320;2023-01-31T09:00:32;10.23;;;4.30;;
37069;SDS011;22984;48.862;9.320;2023-01-31T09:02:59;13.68;;;4.47;;
37069;SDS011;22984;48.862;9.320;2023-01-31T09:05:26;15.73;;;4.70;;
37069;SDS011;22984;48.862;9.320;2023-01-31T09:07:53;10.52;;;4.47;;
37069;SDS011;22984;48.862;9.320;2023-01-31T09:10:19;15.18;;;4.55;;
37069;SDS011;22984;48.862;9.320;2023-01-31T09:12:46;13.82;;;4.47;;
37069;SDS011;22984;48.862;9.320;2023-01-31T09:15:12;15.57;;;4.43;;
37069;SDS011;22984;48.862;9.320;2023-01-31T09:17:39;10.45;;;4.47;;
37069;SDS011;22984;48.862;9.320;2023-01-31T09:20:06;11.77;;;4.00;;
37069;SDS011;22984;48.862;9.320;2023-01-31T09:22:34;12.07;;;4.18;;
37069;SDS011;22984;48.862;9.320;2023-01-31T09:25:00;10.68;;;4.88;;
37069;SDS011;22984;48.862;9.320;2023-01-31T09:27:26;15.10;;;4.60;;
37069;SDS011;22984;48.862;9.320;2023-01-31T09:29:53;11.77;;;4.28;;
37069;SDS011;22984;48.862;9.320;2023-01-31T09:32:19;14.00;;;3.93;;
37069;SDS011;22984;48.862;9.320;2023-01-31T09:34:45;17.38;;;5.10;;
37069;SDS011;22984;48.862;9.320;2023-01-31T09:37:13;16.92;;;3.90;;
37069;SDS011;22984;48.862;9.320;2023-01-31T09:39:39;12.77;;;3.55;;
37069;SDS011;22984;48.862;9.320;2023-01-31T09:42:09;14.43;;;3.90;;
37069;SDS011;22984;48.862;9.320;2023-01-31T09:44:40;12.15;;;3.08;;
37069;SDS011;22984;48.862;9.320;2023-01-31T09:47:08;11.95;;;3.40;;
37069;SDS011;22984;48.862;9.320;2023-01-31T09:49:45;10.47;;;3.60;;
37069;SDS011;22984;48.862;9.320;2023-01-31T09:52:13;12.33;;;3.87;;
37069;SDS011;22984;48.862;9.320;2023-01-31T09:54:39;15.90;;;4.55;;
37069;SDS011;22984;48.862;9.320;2023-01-31T10:05:05;12.95;;;3.70;;
37069;SDS011;22984;48.862;9.320;2023-01-31T10:07:39;14.38;;;3.92;;
37069;SDS011;22984;48.862;9.320;2023-01-31T10:12:43;16.98;;;4.57;;
37069;SDS011;22984;48.862;9.320;2023-01-31T10:15:54;11.98;;;3.95;;
37069;SDS011;22984;48.862;9.320;2023-01-31T10:20:39;11.38;;;4.07;;
37069;SDS011;22984;48.862;9.320;2023-01-31T10:23:28;16.27;;;3.40;;
37069;SDS011;22984;48.862;9.320;2023-01-31T10:25:58;11.63;;;4.05;;
37069;SDS011;22984;48.862;9.320;2023-01-31T10:28:43;12.60;;;3.88;;
37069;SDS011;22984;48.862;9.320;2023-01-31T10:36:30;17.43;;;4.43;;
37069;SDS011;22984;48.862;9.320;2023-01-31T10:41:33;10.10;;;3.33;;
37069;SDS011;22984;48.862;9.320;2023-01-31T10:44:04;27.00;;;4.78;;
37069;SDS011;22984;48.862;9.320;2023-01-31T10:46:32;11.77;;;3.47;;
37069;SDS011;22984;48.862;9.320;2023-01-31T10:48:58;13.07;;;3.45;;
37069;SDS011;22984;48.862;9.320;2023-01-31T10:54:12;17.17;;;3.55;;
37069;SDS011;22984;48.862;9.320;2023-01-31T10:56:42;15.70;;;3.10;;
37069;SDS011;22984;48.862;9.320;2023-01-31T10:59:25;12.05;;;3.42;;
37069;SDS011;22984;48.862;9.320;2023-01-31T11:01:55;11.07;;;3.28;;
37069;SDS011;22984;48.862;9.320;2023-01-31T11:06:48;9.55;;;3.22;;
37069;SDS011;22984;48.862;9.320;2023-01-31T11:09:14;15.93;;;3.67;;
37069;SDS011;22984;48.862;9.320;2023-01-31T11:11:55;13.80;;;3.38;;
37069;SDS011;22984;48.862;9.320;2023-01-31T11:14:21;13.80;;;2.85;;
37069;SDS011;22984;48.862;9.320;2023-01-31T11:16:47;8.02;;;2.60;;
37069;SDS011;22984;48.862;9.320;2023-01-31T11:21:46;7.65;;;2.22;;
37069;SDS011;22984;48.862;9.320;2023-01-31T11:24:20;13.57;;;3.10;;
37069;SDS011;22984;48.862;9.320;2023-01-31T11:29:38;12.63;;;2.88;;
37069;SDS011;22984;48.862;9.320;2023-01-31T11:32:17;14.93;;;2.70;;
37069;SDS011;22984;48.862;9.320;2023-01-31T11:34:54;7.95;;;2.92;;
37069;SDS011;22984;48.862;9.320;2023-01-31T11:37:20;9.43;;;3.40;;
37069;SDS011;22984;48.862;9.320;2023-01-31T11:39:56;12.98;;;3.15;;
37069;SDS011;22984;48.862;9.320;2023-01-31T11:42:23;9.93;;;2.83;;
37069;SDS011;22984;48.862;9.320;2023-01-31T11:44:52;10.30;;;2.78;;
37069;SDS011;22984;48.862;9.320;2023-01-31T11:47:19;29.98;;;4.20;;
37069;SDS011;22984;48.862;9.320;2023-01-31T11:49:47;10.52;;;3.05;;
37069;SDS011;22984;48.862;9.320;2023-01-31T11:52:17;13.70;;;3.45;;
37069;SDS011;22984;48.862;9.320;2023-01-31T11:54:46;18.60;;;3.08;;
37069;SDS011;22984;48.862;9.320;2023-01-31T11:57:14;11.80;;;2.95;;
37069;SDS011;22984;48.862;9.320;2023-01-31T11:59:41;9.68;;;2.65;;
37069;SDS011;22984;48.862;9.320;2023-01-31T12:02:21;18.92;;;3.15;;
37069;SDS011;22984;48.862;9.320;2023-01-31T12:04:49;11.00;;;3.13;;
37069;SDS011;22984;48.862;9.320;2023-01-31T12:07:22;15.50;;;3.40;;
37069;SDS011;22984;48.862;9.320;2023-01-31T12:09:48;10.55;;;2.97;;
37069;SDS011;22984;48.862;9.320;2023-01-31T12:12:22;11.25;;;3.25;;
37069;SDS011;22984;48.862;9.320;2023-01-31T12:14:49;15.43;;;3.17;;
37069;SDS011;22984;48.862;9.320;2023-01-31T12:17:15;14.40;;;3.27;;
37069;SDS011;22984;48.862;9.320;2023-01-31T12:19:51;9.85;;;2.15;;
37069;SDS011;22984;48.862;9.320;2023-01-31T12:22:30;9.90;;;2.13;;
37069;SDS011;22984;48.862;9.320;2023-01-31T12:25:03;9.10;;;2.72;;
37069;SDS011;22984;48.862;9.320;2023-01-31T12:32:52;12.68;;;2.40;;
37069;SDS011;22984;48.862;9.320;2023-01-31T12:38:00;12.68;;;2.30;;
37069;SDS011;22984;48.862;9.320;2023-01-31T12:43:04;13.68;;;5.00;;
37069;SDS011;22984;48.862;9.320;2023-01-31T12:48:24;6.45;;;2.22;;
37069;SDS011;22984;48.862;9.320;2023-01-31T12:51:02;7.33;;;2.53;;
37069;SDS011;22984;48.862;9.320;2023-01-31T12:53:43;8.48;;;2.17;;
37069;SDS011;22984;48.862;9.320;2023-01-31T12:58:49;8.30;;;2.28;;
37069;SDS011;22984;48.862;9.320;2023-01-31T13:01:36;9.20;;;1.98;;
37069;SDS011;22984;48.862;9.320;2023-01-31T13:06:41;7.60;;;2.13;;
37069;SDS011;22984;48.862;9.320;2023-01-31T13:09:18;8.05;;;1.90;;
37069;SDS011;22984;48.862;9.320;2023-01-31T13:11:47;8.70;;;2.08;;
37069;SDS011;22984;48.862;9.320;2023-01-31T13:14:15;11.18;;;2.33;;
37069;SDS011;22984;48.862;9.320;2023-01-31T13:16:44;10.45;;;2.05;;
37069;SDS011;22984;48.862;9.320;2023-01-31T13:19:18;10.57;;;1.90;;
37069;SDS011;22984;48.862;9.320;2023-01-31T13:21:47;11.48;;;1.98;;
37069;SDS011;22984;48.862;9.320;2023-01-31T13:24:15;7.25;;;2.13;;
37069;SDS011;22984;48.862;9.320;2023-01-31T13:27:05;7.20;;;2.03;;
37069;SDS011;22984;48.862;9.320;2023-01-31T13:29:31;20.30;;;3.05;;
37069;SDS011;22984;48.862;9.320;2023-01-31T13:31:59;6.28;;;1.67;;
37069;SDS011;22984;48.862;9.320;2023-01-31T13:34:40;5.27;;;1.87;;
37069;SDS011;22984;48.862;9.320;2023-01-31T13:37:10;5.35;;;2.38;;
37069;SDS011;22984;48.862;9.320;2023-01-31T13:39:45;7.05;;;2.28;;
37069;SDS011;22984;48.862;9.320;2023-01-31T13:42:13;6.95;;;2.05;;
37069;SDS011;22984;48.862;9.320;2023-01-31T13:44:40;7.25;;;2.25;;
37069;SDS011;22984;48.862;9.320;2023-01-31T13:47:11;8.60;;;2.17;;
37069;SDS011;22984;48.862;9.320;2023-01-31T13:49:40;12.38;;;2.55;;
37069;SDS011;22984;48.862;9.320;2023-01-31T13:52:11;9.75;;;2.63;;
37069;SDS011;22984;48.862;9.320;2023-01-31T13:54:59;6.95;;;1.73;;
37069;SDS011;22984;48.862;9.320;2023-01-31T13:57:30;8.68;;;1.63;;
37069;SDS011;22984;48.862;9.320;2023-01-31T14:02:30;7.32;;;1.90;;
37069;SDS011;22984;48.862;9.320;2023-01-31T14:05:03;13.70;;;2.35;;
37069;SDS011;22984;48.862;9.320;2023-01-31T14:07:30;15.25;;;1.95;;
37069;SDS011;22984;48.862;9.320;2023-01-31T14:14:49;5.63;;;1.98;;
37069;SDS011;22984;48.862;9.320;2023-01-31T14:32:35;4.30;;;2.20;;
37069;SDS011;22984;48.862;9.320;2023-01-31T14:35:16;6.88;;;1.85;;
37069;SDS011;22984;48.862;9.320;2023-01-31T14:40:34;7.05;;;1.73;;
37069;SDS011;22984;48.862;9.320;2023-01-31T14:51:13;6.13;;;2.20;;
37069;SDS011;22984;48.862;9.320;2023-01-31T14:58:45;5.10;;;1.80;;
37069;SDS011;22984;48.862;9.320;2023-01-31T15:01:11;7.75;;;2.00;;
37069;SDS011;22984;48.862;9.320;2023-01-31T15:03:47;8.15;;;1.90;;
37069;SDS011;22984;48.862;9.320;2023-01-31T15:06:14;7.70;;;2.05;;
37069;SDS011;22984;48.862;9.320;2023-01-31T15:08:43;8.63;;;2.43;;
37069;SDS011;22984;48.862;9.320;2023-01-31T15:11:13;5.45;;;2.00;;
37069;SDS011;22984;48.862;9.320;2023-01-31T15:13:59;11.48;;;2.33;;
37069;SDS011;22984;48.862;9.320;2023-01-31T15:18:52;5.82;;;2.20;;
37069;SDS011;22984;48.862;9.320;2023-01-31T15:21:22;5.38;;;2.30;;
37069;SDS011;22984;48.862;9.320;2023-01-31T15:23:48;6.55;;;1.85;;
37069;SDS011;22984;48.862;9.320;2023-01-31T15:26:15;8.30;;;2.40;;
37069;SDS011;22984;48.862;9.320;2023-01-31T15:28:41;7.63;;;3.28;;
37069;SDS011;22984;48.862;9.320;2023-01-31T15:31:27;8.40;;;2.03;;
37069;SDS011;22984;48.862;9.320;2023-01-31T15:33:56;10.82;;;4.22;;
37069;SDS011;22984;48.862;9.320;2023-01-31T15:36:26;7.70;;;3.15;;
37069;SDS011;22984;48.862;9.320;2023-01-31T15:38:56;5.72;;;2.30;;
37069;SDS011;22984;48.862;9.320;2023-01-31T15:43:50;5.65;;;2.13;;
37069;SDS011;22984;48.862;9.320;2023-01-31T15:46:24;9.50;;;3.15;;
37069;SDS011;22984;48.862;9.320;2023-01-31T15:48:51;4.72;;;2.15;;
37069;SDS011;22984;48.862;9.320;2023-01-31T15:51:17;7.82;;;2.60;;
37069;SDS011;22984;48.862;9.320;2023-01-31T15:53:44;5.47;;;2.15;;
37069;SDS011;22984;48.862;9.320;2023-01-31T15:56:17;5.90;;;2.10;;
37069;SDS011;22984;48.862;9.320;2023-01-31T15:58:46;4.53;;;2.20;;
37069;SDS011;22984;48.862;9.320;2023-01-31T16:01:13;4.47;;;2.20;;
37069;SDS011;22984;48.862;9.320;2023-01-31T16:03:41;6.15;;;2.17;;
37069;SDS011;22984;48.862;9.320;2023-01-31T16:08:50;4.43;;;2.75;;
37069;SDS011;22984;48.862;9.320;2023-01-31T16:11:16;6.70;;;2.78;;
37069;SDS011;22984;48.862;9.320;2023-01-31T16:13:42;10.07;;;2.92;;
37069;SDS011;22984;48.862;9.320;2023-01-31T16:16:09;8.75;;;3.30;;
37069;SDS011;22984;48.862;9.320;2023-01-31T16:18:37;4.67;;;2.73;;
37069;SDS011;22984;48.862;9.320;2023-01-31T16:23:39;11.30;;;3.90;;
37069;SDS011;22984;48.862;9.320;2023-01-31T16:26:07;12.83;;;5.07;;
37069;SDS011;22984;48.862;9.320;2023-01-31T16:28:36;5.90;;;3.13;;
37069;SDS011;22984;48.862;9.320;2023-01-31T16:31:10;9.05;;;4.10;;
37069;SDS011;22984;48.862;9.320;2023-01-31T16:33:36;5.20;;;2.95;;
37069;SDS011;22984;48.862;9.320;2023-01-31T16:36:04;4.83;;;2.93;;
37069;SDS011;22984;48.862;9.320;2023-01-31T16:38:31;5.72;;;2.70;;
37069;SDS011;22984;48.862;9.320;2023-01-31T16:40:57;5.88;;;3.10;;
37069;SDS011;22984;48.862;9.320;2023-01-31T16:43:26;6.68;;;3.30;;
37069;SDS011;22984;48.862;9.320;2023-01-31T16:48:27;7.30;;;3.10;;
37069;SDS011;22984;48.862;9.320;2023-01-31T16:50:54;5.22;;;2.70;;
37069;SDS011;22984;48.862;9.320;2023-01-31T16:56:14;9.55;;;2.95;;
37069;SDS011;22984;48.862;9.320;2023-01-31T17:01:09;5.35;;;2.75;;
37069;SDS011;22984;48.862;9.320;2023-01-31T17:03:36;3.80;;;2.65;;
37069;SDS011;22984;48.862;9.320;2023-01-31T17:06:02;6.35;;;2.80;;
37069;SDS011;22984;48.862;9.320;2023-01-31T17:08:29;7.40;;;3.20;;
37069;SDS011;22984;48.862;9.320;2023-01-31T17:10:57;6.47;;;2.55;;
37069;SDS011;22984;48.862;9.320;2023-01-31T17:13:23;6.32;;;3.55;;
37069;SDS011;22984;48.862;9.320;2023-01-31T17:15:50;4.55;;;2.67;;